createdAt,value
2018-06-14T00:00:45.232Z,2.10
2018-06-14T00:03:24.146Z,2.47
2018-06-14T00:05:58.435Z,2.27
2018-06-14T00:08:33.907Z,2.97
2018-06-14T00:11:13.324Z,2.83
2018-06-14T00:13:47.647Z,3.20
2018-06-14T00:16:21.911Z,2.37
2018-06-14T00:18:56.112Z,4.77
2018-06-14T00:21:30.365Z,3.23
2018-06-14T00:24:04.546Z,4.33
2018-06-14T00:26:38.747Z,2.47
2018-06-14T00:29:12.887Z,3.03
2018-06-14T00:31:49.198Z,4.43
2018-06-14T00:34:27.391Z,2.47
2018-06-14T00:37:01.770Z,5.40
2018-06-14T00:39:38.112Z,2.43
2018-06-14T00:42:17.129Z,3.13
2018-06-14T00:45:04.614Z,5.83
2018-06-14T00:48:18.446Z,3.37
2018-06-14T00:50:58.720Z,2.43
2018-06-14T00:53:32.917Z,3.20
2018-06-14T00:56:12.997Z,2.97
2018-06-14T00:58:47.279Z,1.47
2018-06-14T01:01:23.955Z,2.10
2018-06-14T01:10:48.965Z,2.73
2018-06-14T01:13:43.028Z,4.27
2018-06-14T01:19:57.447Z,4.80
2018-06-14T01:23:18.310Z,2.50
2018-06-14T01:26:23.219Z,4.50
2018-06-14T01:29:25.500Z,3.57
2018-06-14T01:32:26.585Z,3.00
2018-06-14T01:35:34.014Z,1.27
2018-06-14T01:45:05.970Z,2.90
2018-06-14T01:48:07.469Z,3.73
2018-06-14T01:51:07.779Z,1.30
2018-06-14T01:54:02.375Z,2.23
2018-06-14T02:24:32.984Z,4.90
2018-06-14T02:27:36.387Z,5.80
2018-06-14T02:30:33.941Z,3.77
2018-06-14T02:33:28.545Z,4.73
2018-06-14T02:36:24.484Z,4.87
2018-06-14T02:39:17.013Z,6.50
2018-06-14T02:48:13.924Z,2.37
2018-06-14T02:51:09.902Z,1.83
2018-06-14T02:54:09.354Z,2.83
2018-06-14T02:57:08.325Z,2.73
2018-06-14T03:00:03.209Z,4.03
2018-06-14T03:09:40.015Z,6.17
2018-06-14T03:15:43.000Z,6.10
2018-06-14T03:18:41.730Z,3.60
2018-06-14T03:22:06.083Z,2.90
2018-06-14T03:25:01.771Z,4.67
2018-06-14T03:28:02.114Z,4.17
2018-06-14T03:34:12.472Z,3.10
2018-06-14T03:37:21.274Z,7.03
2018-06-14T03:46:27.021Z,1.63
2018-06-14T03:49:19.891Z,3.43
2018-06-14T03:52:17.346Z,3.03
2018-06-14T03:55:15.253Z,3.07
2018-06-14T04:01:18.645Z,8.00
2018-06-14T04:10:13.180Z,4.33
2018-06-14T04:13:12.988Z,3.97
2018-06-14T04:16:07.412Z,6.50
2018-06-14T04:24:58.099Z,8.57
2018-06-14T04:28:00.686Z,4.50
2018-06-14T04:33:49.431Z,8.73
2018-06-14T04:36:27.442Z,3.47
2018-06-14T04:39:01.613Z,5.20
2018-06-14T04:41:35.943Z,4.63
2018-06-14T04:44:10.122Z,4.83
2018-06-14T04:46:44.327Z,9.23
2018-06-14T04:49:18.447Z,5.07
2018-06-14T04:51:52.648Z,4.07
2018-06-14T04:54:26.795Z,4.93
2018-06-14T04:57:01.010Z,3.70
2018-06-14T04:59:35.661Z,6.90
2018-06-14T05:02:10.434Z,4.20
2018-06-14T05:04:45.198Z,6.40
2018-06-14T05:07:19.961Z,4.10
2018-06-14T05:09:54.682Z,6.70
2018-06-14T05:12:29.428Z,3.80
2018-06-14T05:15:04.168Z,6.10
2018-06-14T05:17:38.963Z,3.90
2018-06-14T05:20:13.680Z,3.12
2018-06-14T05:22:48.873Z,3.08
2018-06-14T05:25:23.029Z,9.50
2018-06-14T05:27:58.253Z,3.58
2018-06-14T05:30:32.951Z,4.03
2018-06-14T05:33:08.667Z,2.85
2018-06-14T05:35:42.807Z,5.00
2018-06-14T05:38:16.552Z,7.07
2018-06-14T05:40:52.417Z,3.40
2018-06-14T05:43:28.226Z,9.25
2018-06-14T05:46:03.947Z,3.65
2018-06-14T05:48:38.667Z,4.33
2018-06-14T05:51:14.381Z,3.08
2018-06-14T05:53:49.544Z,2.60
2018-06-14T05:56:24.255Z,3.45
2018-06-14T05:59:00.015Z,2.83
2018-06-14T06:01:34.191Z,6.00
2018-06-14T06:04:08.341Z,3.07
2018-06-14T06:06:42.505Z,2.83
2018-06-14T06:09:16.706Z,5.03
2018-06-14T06:11:50.365Z,1.22
2018-06-14T06:14:25.114Z,4.03
2018-06-14T06:16:59.264Z,3.93
2018-06-14T06:19:34.035Z,2.35
2018-06-14T06:22:08.731Z,4.75
2018-06-14T06:24:43.482Z,3.08
2018-06-14T06:27:18.223Z,5.37
2018-06-14T06:29:53.263Z,2.40
2018-06-14T06:32:27.999Z,3.02
2018-06-14T06:35:03.123Z,2.52
2018-06-14T06:37:37.811Z,3.08
2018-06-14T06:40:13.564Z,6.20
2018-06-14T06:42:47.748Z,1.37
2018-06-14T06:45:22.487Z,5.12
2018-06-14T06:47:57.367Z,6.37
2018-06-14T06:50:32.121Z,4.65
2018-06-14T06:53:07.002Z,2.10
2018-06-14T06:55:41.715Z,5.58
2018-06-14T06:58:15.941Z,3.75
2018-06-14T07:00:50.691Z,4.12
2018-06-14T07:03:25.395Z,4.22
2018-06-14T07:06:00.159Z,2.72
2018-06-14T07:08:36.054Z,4.05
2018-06-14T07:11:10.798Z,2.60
2018-06-14T07:13:46.538Z,5.28
2018-06-14T07:16:20.820Z,3.40
2018-06-14T07:18:55.494Z,4.47
2018-06-14T07:21:31.324Z,3.52
2018-06-14T07:24:05.856Z,4.53
2018-06-14T07:26:41.616Z,3.60
2018-06-14T07:29:16.378Z,3.42
2018-06-14T07:31:51.147Z,4.00
2018-06-14T07:34:25.361Z,2.75
2018-06-14T07:36:59.615Z,4.12
2018-06-14T07:39:34.323Z,2.92
2018-06-14T07:42:09.077Z,2.98
2018-06-14T07:44:44.047Z,4.37
2018-06-14T07:47:20.264Z,4.80
2018-06-14T07:49:54.959Z,5.25
2018-06-14T07:52:29.660Z,4.10
2018-06-14T07:55:04.419Z,5.25
2018-06-14T07:57:40.183Z,7.90
2018-06-14T08:00:15.236Z,4.67
2018-06-14T08:02:49.992Z,5.20
2018-06-14T08:05:24.686Z,4.20
2018-06-14T08:07:59.429Z,5.80
2018-06-14T08:10:34.142Z,3.58
2018-06-14T08:13:09.114Z,5.70
2018-06-14T08:15:43.378Z,4.42
2018-06-14T08:18:19.087Z,10.23
2018-06-14T08:20:53.811Z,5.83
2018-06-14T08:23:28.536Z,7.20
2018-06-14T08:26:02.754Z,3.72
2018-06-14T08:28:40.415Z,4.20
2018-06-14T08:31:15.182Z,4.30
2018-06-14T08:33:51.575Z,4.03
2018-06-14T08:36:27.418Z,4.03
2018-06-14T08:39:09.250Z,5.78
2018-06-14T08:41:44.052Z,5.87
2018-06-14T08:44:18.885Z,4.37
2018-06-14T08:46:56.042Z,2.72
2018-06-14T08:49:33.881Z,4.08
2018-06-14T08:52:14.142Z,4.97
2018-06-14T08:54:52.260Z,4.75
2018-06-14T08:57:30.662Z,3.17
2018-06-14T09:00:05.851Z,2.50
2018-06-14T09:02:43.024Z,3.47
2018-06-14T09:05:21.461Z,3.37
2018-06-14T09:07:58.806Z,5.45
2018-06-14T09:10:36.788Z,4.50
2018-06-14T09:13:14.026Z,3.33
2018-06-14T09:15:55.321Z,3.25
2018-06-14T09:18:36.495Z,5.10
2018-06-14T09:21:30.193Z,2.98
2018-06-14T09:24:15.979Z,2.95
2018-06-14T09:26:56.500Z,5.95
2018-06-14T09:29:39.302Z,3.40
2018-06-14T09:32:32.396Z,3.77
2018-06-14T09:35:20.731Z,3.05
2018-06-14T09:38:06.235Z,3.75
2018-06-14T09:40:47.266Z,2.87
2018-06-14T09:43:31.088Z,3.15
2018-06-14T09:46:11.326Z,3.60
2018-06-14T09:48:52.106Z,4.20
2018-06-14T09:54:18.028Z,5.20
2018-06-14T09:56:54.016Z,3.58
2018-06-14T09:59:28.806Z,3.42
2018-06-14T10:02:04.567Z,6.17
2018-06-14T10:04:40.357Z,7.15
2018-06-14T10:07:15.088Z,3.65
2018-06-14T10:09:49.768Z,5.03
2018-06-14T10:12:24.103Z,5.05
2018-06-14T10:14:59.231Z,5.25
2018-06-14T10:17:40.192Z,4.97
2018-06-14T10:20:14.903Z,6.78
2018-06-14T10:22:50.750Z,4.25
2018-06-14T10:25:25.403Z,4.28
2018-06-14T10:28:00.134Z,4.20
2018-06-14T10:30:34.892Z,4.17
2018-06-14T10:33:09.692Z,4.10
2018-06-14T10:35:44.444Z,4.47
2018-06-14T10:38:19.199Z,5.92
2018-06-14T10:40:53.965Z,4.85
2018-06-14T10:43:29.716Z,5.97
2018-06-14T10:46:04.659Z,8.45
2018-06-14T10:48:39.323Z,5.70
2018-06-14T10:51:14.031Z,6.40
2018-06-14T10:53:48.705Z,6.72
2018-06-14T10:56:23.592Z,4.83
2018-06-14T10:58:58.324Z,5.35
2018-06-14T11:01:33.083Z,5.35
2018-06-14T11:04:07.769Z,6.40
2018-06-14T11:06:42.463Z,7.22
2018-06-14T11:09:17.192Z,3.75
2018-06-14T11:11:51.911Z,5.17
2018-06-14T11:14:26.614Z,6.78
2018-06-14T11:17:00.894Z,5.62
2018-06-14T11:19:36.626Z,5.22
2018-06-14T11:22:11.328Z,4.87
2018-06-14T11:24:47.048Z,4.67
2018-06-14T11:27:21.818Z,5.12
2018-06-14T11:29:56.573Z,4.83
2018-06-14T11:32:31.324Z,6.95
2018-06-14T11:35:06.212Z,6.58
2018-06-14T11:37:40.959Z,4.30
2018-06-14T11:40:15.648Z,4.25
2018-06-14T11:42:50.397Z,5.10
2018-06-14T11:45:25.065Z,4.62
2018-06-14T11:47:59.335Z,6.53
2018-06-14T11:50:34.077Z,4.00
2018-06-14T11:53:08.801Z,4.03
2018-06-14T11:55:44.510Z,6.35
2018-06-14T11:58:19.263Z,8.73
2018-06-14T12:00:53.959Z,4.45
2018-06-14T12:03:29.731Z,6.78
2018-06-14T12:06:04.400Z,4.40
2018-06-14T12:08:39.150Z,3.47
2018-06-14T12:11:13.863Z,5.45
2018-06-14T12:13:48.119Z,3.70
2018-06-14T12:16:22.875Z,5.85
2018-06-14T12:18:57.636Z,5.17
2018-06-14T12:21:31.854Z,6.92
2018-06-14T12:24:06.593Z,4.55
2018-06-14T12:26:41.486Z,5.25
2018-06-14T12:29:16.188Z,4.50
2018-06-14T12:31:50.904Z,5.33
2018-06-14T12:34:25.655Z,5.08
2018-06-14T12:37:00.400Z,6.42
2018-06-14T12:39:36.120Z,4.90
2018-06-14T12:42:10.858Z,6.70
2018-06-14T12:44:45.599Z,2.90
2018-06-14T12:47:20.302Z,2.75
2018-06-14T12:49:55.047Z,3.95
2018-06-14T12:52:29.744Z,3.70
2018-06-14T12:55:05.863Z,4.25
2018-06-14T12:57:40.589Z,5.53
2018-06-14T13:00:15.324Z,4.37
2018-06-14T13:02:50.008Z,3.77
2018-06-14T13:05:24.744Z,3.65
2018-06-14T13:07:58.968Z,5.17
2018-06-14T13:10:33.695Z,5.62
2018-06-14T13:13:08.430Z,3.70
2018-06-14T13:15:43.195Z,3.83
2018-06-14T13:18:18.038Z,3.80
2018-06-14T13:20:52.755Z,3.98
2018-06-14T13:23:27.435Z,3.45
2018-06-14T13:26:02.224Z,4.45
2018-06-14T13:28:36.939Z,5.58
2018-06-14T13:31:11.661Z,4.03
2018-06-14T13:33:46.357Z,4.05
2018-06-14T13:36:22.126Z,4.20
2018-06-14T13:38:56.834Z,2.75
2018-06-14T13:41:31.511Z,3.52
2018-06-14T13:44:05.778Z,4.58
2018-06-14T13:46:41.960Z,3.58
2018-06-14T13:49:16.702Z,4.30
2018-06-14T13:51:51.652Z,4.58
2018-06-14T13:54:25.853Z,3.67
2018-06-14T13:57:01.649Z,4.15
2018-06-14T13:59:36.484Z,6.10
2018-06-14T14:02:11.235Z,3.72
2018-06-14T14:04:45.927Z,6.37
2018-06-14T14:07:26.694Z,5.25
2018-06-14T14:10:01.534Z,4.35
2018-06-14T14:12:37.317Z,5.20
2018-06-14T14:15:12.018Z,3.60
2018-06-14T14:17:46.737Z,6.33
2018-06-14T14:20:21.472Z,3.15
2018-06-14T14:22:56.212Z,3.70
2018-06-14T14:25:30.978Z,3.65
2018-06-14T14:28:06.748Z,2.72
2018-06-14T14:30:41.442Z,5.40
2018-06-14T14:33:17.180Z,4.33
2018-06-14T14:35:52.877Z,3.58
2018-06-14T14:38:27.615Z,4.00
2018-06-14T14:41:03.334Z,3.83
2018-06-14T14:43:39.140Z,3.22
2018-06-14T14:46:14.894Z,4.35
2018-06-14T14:48:49.604Z,2.65
2018-06-14T14:51:24.314Z,2.90
2018-06-14T14:53:59.104Z,3.20
2018-06-14T14:56:33.345Z,2.65
2018-06-14T14:59:09.100Z,4.45
2018-06-14T15:01:43.767Z,2.62
2018-06-14T15:04:19.507Z,2.70
2018-06-14T15:06:54.236Z,2.87
2018-06-14T15:09:30.028Z,2.85
2018-06-14T15:12:04.791Z,2.62
2018-06-14T15:14:39.756Z,3.20
2018-06-14T15:17:14.444Z,2.77
2018-06-14T15:19:49.272Z,2.58
2018-06-14T15:22:24.118Z,2.30
2018-06-14T15:24:58.854Z,3.15
2018-06-14T15:27:33.531Z,2.90
2018-06-14T15:30:08.276Z,6.53
2018-06-14T15:32:43.979Z,4.97
2018-06-14T15:35:18.715Z,3.47
2018-06-14T15:37:52.913Z,3.80
2018-06-14T15:40:28.688Z,4.70
2018-06-14T15:43:03.399Z,4.08
2018-06-14T15:45:37.667Z,5.03
2018-06-14T15:48:12.403Z,3.30
2018-06-14T15:50:48.161Z,3.27
2018-06-14T15:53:23.932Z,3.08
2018-06-14T15:56:18.456Z,5.10
2018-06-14T15:58:53.167Z,3.77
2018-06-14T16:01:27.899Z,2.77
2018-06-14T16:04:03.064Z,2.75
2018-06-14T16:06:38.204Z,4.53
2018-06-14T16:09:13.973Z,3.08
2018-06-14T16:11:48.691Z,2.47
2018-06-14T16:14:23.465Z,3.00
2018-06-14T16:16:57.728Z,3.40
2018-06-14T16:19:32.442Z,7.33
2018-06-14T16:22:07.156Z,4.80
2018-06-14T16:24:41.906Z,5.12
2018-06-14T16:27:16.628Z,2.75
2018-06-14T16:29:51.354Z,5.90
2018-06-14T16:32:26.098Z,3.40
2018-06-14T16:35:01.929Z,2.83
2018-06-14T16:37:36.658Z,3.30
2018-06-14T16:40:11.376Z,3.70
2018-06-14T16:42:46.057Z,2.60
2018-06-14T16:45:20.273Z,3.20
2018-06-14T16:47:54.952Z,4.45
2018-06-14T16:50:29.760Z,4.05
2018-06-14T16:53:04.569Z,2.80
2018-06-14T16:55:40.352Z,4.22
2018-06-14T16:58:15.132Z,3.22
2018-06-14T17:00:49.354Z,3.47
2018-06-14T17:03:24.112Z,4.55
2018-06-14T17:05:59.863Z,5.12
2018-06-14T17:08:34.579Z,3.67
2018-06-14T17:11:09.279Z,3.47
2018-06-14T17:13:43.549Z,3.42
2018-06-14T17:16:19.240Z,3.70
2018-06-14T17:18:53.497Z,2.90
2018-06-14T17:21:28.388Z,4.47
2018-06-14T17:24:03.088Z,3.35
2018-06-14T17:26:37.798Z,4.37
2018-06-14T17:29:12.518Z,5.15
2018-06-14T17:31:47.229Z,3.92
2018-06-14T17:34:21.939Z,3.58
2018-06-14T17:36:56.680Z,2.55
2018-06-14T17:39:31.804Z,3.02
2018-06-14T17:42:07.757Z,3.65
2018-06-14T17:44:42.510Z,2.92
2018-06-14T17:47:17.260Z,3.17
2018-06-14T17:49:51.990Z,5.65
2018-06-14T17:52:26.686Z,3.12
2018-06-14T17:55:01.448Z,7.53
2018-06-14T17:57:36.165Z,6.97
2018-06-14T18:00:11.000Z,4.97
2018-06-14T18:02:45.233Z,3.15
2018-06-14T18:05:27.586Z,4.90
2018-06-14T18:08:02.398Z,3.22
2018-06-14T18:10:37.155Z,4.70
2018-06-14T18:13:11.893Z,2.98
2018-06-14T18:15:46.607Z,2.98
2018-06-14T18:18:21.292Z,2.85
2018-06-14T18:20:56.026Z,3.62
2018-06-14T18:23:31.751Z,5.85
2018-06-14T18:26:06.455Z,5.28
2018-06-14T18:28:41.697Z,5.42
2018-06-14T18:31:15.968Z,3.42
2018-06-14T18:33:50.648Z,3.75
2018-06-14T18:36:26.358Z,3.58
2018-06-14T18:39:01.011Z,4.25
2018-06-14T18:41:35.246Z,4.70
2018-06-14T18:44:10.005Z,4.75
2018-06-14T18:46:44.962Z,5.17
2018-06-14T18:49:25.369Z,6.05
2018-06-14T18:52:03.144Z,6.37
2018-06-14T18:54:38.975Z,4.40
2018-06-14T18:57:13.763Z,5.03
2018-06-14T18:59:48.523Z,3.40
2018-06-14T19:02:24.211Z,3.85
2018-06-14T19:04:59.014Z,3.47
2018-06-14T19:07:33.218Z,3.95
2018-06-14T19:10:08.964Z,4.70
2018-06-14T19:12:44.696Z,4.78
2018-06-14T19:15:20.731Z,5.47
2018-06-14T19:17:55.780Z,4.17
2018-06-14T19:20:30.892Z,6.08
2018-06-14T19:23:06.664Z,5.42
2018-06-14T19:25:42.403Z,5.50
2018-06-14T19:28:18.166Z,4.85
2018-06-14T19:30:52.857Z,6.72
2018-06-14T19:33:27.587Z,7.83
2018-06-14T19:36:02.696Z,9.20
2018-06-14T19:38:37.391Z,13.85
2018-06-14T19:41:12.134Z,21.00
2018-06-14T19:43:46.842Z,20.35
2018-06-14T19:46:22.617Z,20.72
2018-06-14T19:52:16.071Z,25.17
2018-06-14T19:54:50.840Z,24.57
2018-06-14T19:57:25.802Z,25.60
2018-06-14T20:00:00.563Z,26.68
2018-06-14T20:02:35.378Z,24.00
2018-06-14T20:05:10.063Z,26.12
2018-06-14T20:07:44.845Z,27.77
2018-06-14T20:10:21.554Z,27.55
2018-06-14T20:13:06.046Z,28.12
2018-06-14T20:15:51.429Z,26.15
2018-06-14T20:18:34.119Z,27.13
2018-06-14T20:21:16.714Z,26.60
2018-06-14T20:23:52.466Z,27.40
2018-06-14T20:26:32.226Z,27.48
2018-06-14T20:29:13.589Z,26.55
2018-06-14T20:31:56.873Z,30.10
2018-06-14T20:34:35.810Z,25.82
2018-06-14T20:37:11.907Z,27.52
2018-06-14T20:39:50.392Z,28.20
2018-06-14T20:42:28.614Z,26.97
2018-06-14T20:45:05.657Z,28.10
2018-06-14T20:47:44.665Z,28.47
2018-06-14T20:50:25.151Z,28.50
2018-06-14T20:53:03.882Z,29.70
2018-06-14T20:55:55.451Z,28.20
2018-06-14T20:58:35.739Z,29.10
2018-06-14T21:01:13.308Z,24.05
2018-06-14T21:03:48.132Z,30.75
2018-06-14T21:06:27.366Z,29.50
2018-06-14T21:09:10.399Z,29.23
2018-06-14T21:11:48.069Z,30.92
2018-06-14T21:14:26.498Z,30.48
2018-06-14T21:17:13.142Z,30.57
2018-06-14T21:20:10.425Z,30.32
2018-06-14T21:28:28.877Z,34.48
2018-06-14T21:31:14.152Z,33.13
2018-06-14T21:34:10.267Z,33.98
2018-06-14T21:36:58.133Z,35.43
2018-06-14T21:39:43.670Z,33.38
2018-06-14T21:42:26.397Z,32.10
2018-06-14T21:48:14.508Z,31.50
2018-06-14T21:53:58.713Z,29.55
2018-06-14T21:56:43.491Z,29.75
2018-06-14T21:59:35.012Z,28.92
2018-06-14T22:02:24.997Z,28.27
2018-06-14T22:05:07.916Z,28.07
2018-06-14T22:07:47.621Z,28.45
2018-06-14T22:13:11.136Z,28.75
2018-06-14T22:15:46.662Z,28.92
2018-06-14T22:18:22.230Z,33.33
2018-06-14T22:21:02.019Z,28.35
2018-06-14T22:23:59.615Z,27.58
2018-06-14T22:26:35.352Z,27.62
2018-06-14T22:29:10.168Z,28.38
2018-06-14T22:31:45.883Z,26.07
2018-06-14T22:34:31.073Z,24.92
2018-06-14T22:37:19.977Z,26.45
2018-06-14T22:39:56.508Z,26.17
2018-06-14T22:42:34.477Z,25.08
2018-06-14T22:45:13.953Z,24.32
2018-06-14T22:47:49.752Z,22.50
2018-06-14T22:50:39.123Z,25.30
2018-06-14T22:53:13.854Z,26.82
2018-06-14T22:55:51.626Z,25.82
2018-06-14T22:58:25.989Z,28.05
2018-06-14T23:02:03.454Z,25.25
2018-06-14T23:04:38.988Z,27.15
2018-06-14T23:07:23.520Z,25.27
2018-06-14T23:10:20.507Z,25.08
2018-06-14T23:12:55.370Z,27.85
2018-06-14T23:15:32.064Z,27.50
2018-06-14T23:18:06.828Z,28.25
2018-06-14T23:20:53.526Z,29.32
2018-06-14T23:23:27.813Z,30.83
2018-06-14T23:26:06.403Z,30.48
2018-06-14T23:28:41.938Z,31.75
2018-06-14T23:31:17.495Z,31.03
2018-06-14T23:33:53.238Z,32.70
2018-06-14T23:36:27.584Z,33.03
2018-06-14T23:39:02.816Z,34.03
2018-06-14T23:41:37.045Z,35.03
2018-06-14T23:44:11.857Z,30.82
2018-06-14T23:46:47.036Z,31.55
2018-06-14T23:49:21.900Z,31.85
2018-06-14T23:51:56.621Z,31.45
2018-06-14T23:54:30.866Z,30.83
2018-06-14T23:57:06.047Z,29.90
2018-06-14T23:59:40.788Z,28.95
